Airfield :
LOGIN :

Register | Disclaimer

   EN    FR    IT 

 










Legend :    VFR   Marginal VFR   IFR   Intensive IFR   Very Intensive IFR
Visi :
Ceiling :
>= 8 km
>= 3000ft
5 to 8 km
1000 to 3000 ft
1500m to 5 km
500 to 1000 ft
800 to 1500m
200 to 500 ft
< 800m
< 200 ft
Symbols :   Thunderstorms  Fog  Heavy snow  Heavy precipitations  Wind > 20 kt
SIGMETs :     Misc.  Thunderstorms  Icing  Turbulence  Mountain Waves  Volcanic Ashes






- Airport Elevation : 287 ft


LFRL - Lanveoc Poulmic

CURRENT METAR :
  • 112030Z AUTO 29013KT 9999 FEW028/// SCT034/// BKN043/// ///TCU 07/03 Q1011

EXPIRED METARs :
  • 112000Z AUTO 30012KT 9999 SCT037 BKN100 BKN120 07/02 Q1011
  • 111930Z AUTO 30015KT 9999 FEW036 07/02 Q1011
  • 111900Z AUTO 29019KT 9999 FEW023/// SCT045/// BKN054/// ///TCU 06/03 Q1010
  • 111830Z AUTO 29018KT 9999 BKN037/// BKN048/// BKN056/// ///TCU 07/02 Q1010 TEMPO 3000 SHRA BECMG 29010G20KT
  • 111800Z AUTO 29017G28KT 260V320 9999 FEW024/// SCT033/// BKN044/// ///TCU 07/03 Q1010 TEMPO 3000 SHRA

TAF TAF LFRL
Valid from the 11 at 12:00 until the 12 at 12:00 UTC


111100Z 1112/1212 27015G25KT 9999 SCT020 BKN030
TEMPO 1112/1121 3000 SHRA SCT015TCU BKN025
PROB40
TEMPO 1112/1116 2000 TSRAGS BKN010CB
BECMG 1119/1121 29010G20KT
BECMG 1201/1203 24015G25KT 4000 -RADZ OVC010
BECMG 1205/1207 22020G30KT 3000 RA OVC005
TEMPO 1207/1212 2000 RA OVC003



MET'MAP, your aeronautical weather chart ! - Copyright ORBIFLY December 2007 - Disclaimer

ORBIFLY MET'MAP TEAM :

Programming & Development : Alexandra Zaïnal
Concept & original design : Baudouin d'Aumeries
Assistance for programming : Marc-Olivier Méhu
Technical & hardware support : Manuel Goepfert

Contact : metmap@orbifly.com




SOURCES & CREDITS :

   NOAA